Weather at Nanki Shirahama Airport

Public forecast

Using degrees Celsius for public forecast. Weather courtesy of forecast.io.

Current aviation weather report (METAR) for Nanki Shirahama Airport

Report is more than 6 hours old.

Retrieved 2021/04/13 10:00 UTC (9 hours ago):

RJBD 131000Z 15017KT 2000 +SHRA BR FEW005 BKN008 BKN015 18/17 Q1010

Closest aviation forecast (TAF) to Nanki Shirahama Airport

Closest forecast is Kansai International Airport, 46.3 nm (85.8 km) N. Retrieved 2021/04/13 18:28 UTC (13 minutes ago):

TAF RJBB 131715Z 1318/1500 34004KT 9999 FEW020 SCT035 TEMPO 1318/1320 4000 BR FEW003 BKN008 BKN015 BECMG 1319/1321 28013KT BECMG 1404/1406 36020KT